Main page
METAR-TAF:

METAR-TAF

Airports :

Ahvaz, Iran

Ahvaz International Airport

latitude: 31-20N, longitude: 048-40E, elevation: 20 m

Current weather observation

The report was made 20 minutes ago, at 09:30 UTC
Wind 6 kt from the West/Northwest
Temperature 34°C
Humidity 20%
Pressure 1010 hPa
Visibility 10 km or more
no clouds below 1500 m and no cumulonimbus

METAR: OIAW 220930Z 29006KT CAVOK 34/08 Q1010

Time: 13:20 (09:50 UTC)

Forecast

The report was made 4 hours and 20 minutes ago, at 05:30 UTC
Forecast valid from 22 at 06 UTC to 23 at 12 UTC
Wind 8 kt from the West/Northwest
Visibility: 7000 m

TAF: OIAW 220530Z 2206/2312 30004MPS 7000 NSC

Weather observations and forecasts of more than 4000 airports (METAR and TAF reports).

The available stations are represented by yellow and red dots on the map.

Hover mouse over dot to see the name of the station.

Then click to see weather observations and forecasts.

To change the map : click on the green buttons with a black cross to zoom in, on the green button with a dash to zoom out, or on the green arrows for adjacent maps.


METAR-TAF: